Time;durP1;ratioP1;P1;durP2;ratioP2;P2;SDS_P1;SDS_P2;PMS_P1;PMS_P2;Temp;Humidity;BMP_temperature;BMP_pressure;BME280_temperature;BME280_humidity;BME280_pressure;Samples;Min_cycle;Max_cycle;Signal;HPM_P1;HPM_P2
2022/04/12 00:00:32;;;;;;;4.35;1.63;;;16.10;53.70;;;;;;4980436;28;20179;-73
2022/04/12 00:02:58;;;;;;;3.67;1.80;;;16.10;53.70;;;;;;4996090;28;20049;-74
2022/04/12 00:05:23;;;;;;;2.60;1.17;;;16.10;53.80;;;;;;4998711;28;20133;-73
2022/04/12 00:07:50;;;;;;;5.60;1.83;;;16.10;53.90;;;;;;4997379;28;20073;-73
2022/04/12 00:10:16;;;;;;;3.78;1.42;;;16.10;53.90;;;;;;4997359;28;20057;-73
2022/04/12 00:12:42;;;;;;;2.35;1.30;;;16.10;53.90;;;;;;4997644;28;20046;-73
2022/04/12 00:15:09;;;;;;;3.22;1.30;;;16.10;53.90;;;;;;4997708;28;20366;-74
2022/04/12 00:20:20;;;;;;;2.75;1.60;;;16.10;53.90;;;;;;5013248;28;20140;-73
2022/04/12 00:22:47;;;;;;;3.30;1.63;;;16.10;53.80;;;;;;4997392;28;20052;-75
2022/04/12 00:25:13;;;;;;;3.13;1.15;;;16.10;53.80;;;;;;5012619;28;20042;-74
2022/04/12 00:27:41;;;;;;;2.65;1.33;;;16.10;53.70;;;;;;4979735;28;20054;-74
2022/04/12 00:30:09;;;;;;;3.95;1.70;;;16.10;53.70;;;;;;4996969;28;20086;-73
2022/04/12 00:32:35;;;;;;;2.15;1.05;;;16.10;53.60;;;;;;5014313;28;20469;-74
2022/04/12 00:35:02;;;;;;;2.88;1.73;;;16.10;54.20;;;;;;5016869;28;20368;-74
2022/04/12 00:37:28;;;;;;;2.58;1.70;;;16.10;53.60;;;;;;4999298;28;20081;-74
2022/04/12 00:39:54;;;;;;;3.28;1.50;;;16.10;53.50;;;;;;4996407;28;20147;-74
2022/04/12 00:42:20;;;;;;;5.90;1.70;;;16.10;53.60;;;;;;5016803;28;20042;-72
2022/04/12 00:44:47;;;;;;;2.10;1.50;;;16.10;53.50;;;;;;4999185;28;20124;-72
2022/04/12 00:47:13;;;;;;;2.40;1.40;;;16.10;53.50;;;;;;5016988;28;20124;-73
2022/04/12 00:49:39;;;;;;;4.20;1.60;;;16.10;53.50;;;;;;5016095;28;20053;-73
2022/04/12 00:52:06;;;;;;;3.03;1.70;;;16.10;53.50;;;;;;4999457;28;20049;-74
2022/04/12 00:54:35;;;;;;;2.85;1.55;;;16.10;53.50;;;;;;4999047;28;20046;-73
2022/04/12 00:57:02;;;;;;;2.72;1.70;;;16.00;53.50;;;;;;4998800;28;20052;-73
2022/04/12 00:59:28;;;;;;;2.95;1.63;;;16.00;53.50;;;;;;5016564;28;20365;-73
2022/04/12 01:01:53;;;;;;;3.05;1.52;;;16.00;53.50;;;;;;4986377;28;20055;-73
2022/04/12 01:04:19;;;;;;;3.35;1.60;;;16.00;53.40;;;;;;4997240;28;20085;-73
2022/04/12 01:06:46;;;;;;;3.03;1.70;;;16.00;53.30;;;;;;4996696;28;20057;-73
2022/04/12 01:09:12;;;;;;;1.92;1.50;;;16.00;53.30;;;;;;4979491;28;20046;-73
2022/04/12 01:11:39;;;;;;;3.72;1.83;;;16.00;53.30;;;;;;4996441;28;20167;-73
2022/04/12 01:14:06;;;;;;;2.83;1.63;;;16.00;53.30;;;;;;4980155;28;20046;-73
2022/04/12 01:16:32;;;;;;;4.55;2.10;;;16.00;53.30;;;;;;4996457;28;20071;-74
2022/04/12 01:18:58;;;;;;;4.75;1.80;;;16.00;53.30;;;;;;4996491;28;20374;-73
2022/04/12 01:21:30;;;;;;;2.72;1.35;;;16.00;53.20;;;;;;4979294;28;20050;-74
2022/04/12 01:24:06;;;;;;;3.03;1.45;;;16.00;53.20;;;;;;4996906;28;20050;-75
2022/04/12 01:26:32;;;;;;;2.42;1.52;;;16.00;53.50;;;;;;4996263;28;20054;-73
2022/04/12 01:28:59;;;;;;;2.00;1.75;;;16.00;53.10;;;;;;4996279;28;20069;-72
2022/04/12 01:31:26;;;;;;;4.38;1.92;;;16.00;53.10;;;;;;4996300;28;20115;-74
2022/04/12 01:33:52;;;;;;;3.97;1.60;;;16.00;53.10;;;;;;4995978;28;20054;-72
2022/04/12 01:36:19;;;;;;;3.30;1.90;;;16.00;53.20;;;;;;4996112;28;20050;-76
2022/04/12 01:38:45;;;;;;;2.13;1.50;;;16.00;53.20;;;;;;5011489;28;20361;-74
2022/04/12 01:41:10;;;;;;;2.80;1.60;;;16.00;53.20;;;;;;4995227;28;20050;-73
2022/04/12 01:43:37;;;;;;;3.10;1.45;;;15.90;53.10;;;;;;4995795;28;20461;-72
2022/04/12 01:46:03;;;;;;;2.25;1.58;;;15.90;53.10;;;;;;4979172;28;20370;-74
2022/04/12 01:48:29;;;;;;;4.00;1.95;;;15.90;53.10;;;;;;5011598;28;20053;-74
2022/04/12 01:50:54;;;;;;;3.72;1.70;;;15.90;53.00;;;;;;4995713;28;20042;-72
2022/04/12 01:53:20;;;;;;;5.00;1.83;;;15.90;52.90;;;;;;4978932;28;20369;-73
2022/04/12 01:55:46;;;;;;;3.33;1.63;;;15.90;53.00;;;;;;4978451;28;20046;-75
2022/04/12 01:58:12;;;;;;;2.40;1.83;;;15.90;52.90;;;;;;4978647;28;20050;-76
2022/04/12 02:00:37;;;;;;;3.97;1.73;;;15.90;52.90;;;;;;4995645;28;20069;-73
2022/04/12 02:03:03;;;;;;;3.67;1.67;;;15.90;52.90;;;;;;4995392;28;20050;-74
2022/04/12 02:05:29;;;;;;;3.97;1.77;;;15.90;52.80;;;;;;4995684;28;20065;-74
2022/04/12 02:07:55;;;;;;;3.25;1.75;;;15.90;52.80;;;;;;4995777;28;20042;-73
2022/04/12 02:10:22;;;;;;;3.75;1.52;;;15.90;52.80;;;;;;4995826;28;20046;-73
2022/04/12 02:12:49;;;;;;;2.85;2.00;;;15.90;52.90;;;;;;4995494;28;20050;-73
2022/04/12 02:15:16;;;;;;;3.45;1.52;;;15.80;52.70;;;;;;4995805;28;20349;-72
2022/04/12 02:17:41;;;;;;;4.40;1.73;;;15.90;52.80;;;;;;4995896;28;20057;-73
2022/04/12 02:20:08;;;;;;;5.05;2.15;;;15.90;52.80;;;;;;4978754;28;20450;-73
2022/04/12 02:22:34;;;;;;;2.35;1.65;;;15.80;52.80;;;;;;4995440;28;20080;-75
2022/04/12 02:25:00;;;;;;;3.65;1.73;;;15.80;52.80;;;;;;4995261;28;20064;-73
2022/04/12 02:27:25;;;;;;;2.97;1.67;;;15.80;52.80;;;;;;4996044;28;20126;-73
2022/04/12 02:29:51;;;;;;;3.67;2.25;;;15.80;52.70;;;;;;4995608;28;20065;-73
2022/04/12 02:32:17;;;;;;;3.08;1.80;;;15.80;52.80;;;;;;4988858;28;20078;-74
2022/04/12 02:34:43;;;;;;;3.45;1.73;;;15.80;52.80;;;;;;5014539;28;20041;-72
2022/04/12 02:37:08;;;;;;;4.18;2.00;;;15.80;52.80;;;;;;4997476;28;20057;-74
2022/04/12 02:39:34;;;;;;;4.88;2.20;;;15.80;52.80;;;;;;5015191;28;20052;-76
2022/04/12 02:42:00;;;;;;;4.65;2.33;;;15.80;52.90;;;;;;5014785;28;20054;-74
2022/04/12 02:44:26;;;;;;;3.42;2.28;;;15.80;52.80;;;;;;5015298;28;20054;-74
2022/04/12 02:46:51;;;;;;;3.75;1.90;;;15.80;52.80;;;;;;5014880;28;20107;-72
2022/04/12 02:49:17;;;;;;;5.53;2.38;;;15.70;52.70;;;;;;4997832;28;20045;-73
2022/04/12 02:51:43;;;;;;;2.45;1.48;;;15.70;52.70;;;;;;4983224;28;20499;-73
2022/04/12 02:54:08;;;;;;;3.90;1.58;;;15.80;52.80;;;;;;5018877;28;20449;-73
2022/04/12 02:56:34;;;;;;;3.22;1.75;;;15.80;52.80;;;;;;5001346;28;20057;-72
2022/04/12 02:59:00;;;;;;;3.28;1.95;;;15.70;52.70;;;;;;5001416;28;20046;-73
2022/04/12 03:01:25;;;;;;;4.90;2.60;;;15.80;52.70;;;;;;4997247;28;20501;-73
2022/04/12 03:03:51;;;;;;;2.65;2.00;;;15.70;52.70;;;;;;4999061;28;20054;-74
2022/04/12 03:06:17;;;;;;;4.90;2.53;;;15.70;52.70;;;;;;4981810;28;20097;-73
2022/04/12 03:08:43;;;;;;;3.35;1.95;;;15.70;52.70;;;;;;4998768;28;20130;-76
2022/04/12 03:11:08;;;;;;;4.43;2.20;;;15.70;52.70;;;;;;4978757;28;20058;-72
2022/04/12 03:13:34;;;;;;;4.10;2.05;;;15.70;52.70;;;;;;4998802;28;20042;-73
2022/04/12 03:15:59;;;;;;;2.95;2.03;;;15.70;52.70;;;;;;4998585;28;20042;-74
2022/04/12 03:18:25;;;;;;;3.38;1.95;;;15.70;52.70;;;;;;4998845;28;20454;-73
2022/04/12 03:20:51;;;;;;;3.88;1.95;;;15.70;52.60;;;;;;4998555;28;20366;-74
2022/04/12 03:23:18;;;;;;;3.50;2.42;;;15.70;52.60;;;;;;4981369;28;20050;-72
2022/04/12 03:25:44;;;;;;;2.65;2.05;;;15.70;52.50;;;;;;4998782;28;20358;-72
2022/04/12 03:28:10;;;;;;;3.78;2.10;;;15.70;52.60;;;;;;4998277;28;20050;-74
2022/04/12 03:30:36;;;;;;;2.85;1.90;;;15.70;52.60;;;;;;4980836;28;20065;-73
2022/04/12 03:33:02;;;;;;;2.72;1.92;;;15.70;52.60;;;;;;4998160;28;20050;-72
2022/04/12 03:35:28;;;;;;;2.85;1.83;;;15.70;52.50;;;;;;4997774;28;20050;-75
2022/04/12 03:38:00;;;;;;;4.72;2.45;;;15.70;52.60;;;;;;4981019;28;20069;-73
2022/04/12 03:40:27;;;;;;;3.13;2.15;;;15.60;52.60;;;;;;4998092;28;20462;-74
2022/04/12 03:42:53;;;;;;;3.97;2.38;;;15.70;52.60;;;;;;4998084;28;20347;-73
2022/04/12 03:45:19;;;;;;;2.53;1.85;;;15.60;52.60;;;;;;4980801;28;20157;-74
2022/04/12 03:47:45;;;;;;;3.08;2.00;;;15.60;53.20;;;;;;4998137;28;20109;-74
2022/04/12 03:50:11;;;;;;;3.42;2.17;;;15.60;52.60;;;;;;4980868;28;20121;-74
2022/04/12 03:52:36;;;;;;;3.40;2.17;;;15.60;52.60;;;;;;4980689;28;20073;-73
2022/04/12 03:55:04;;;;;;;4.55;2.85;;;15.60;52.50;;;;;;4998247;28;20140;-75
2022/04/12 03:57:32;;;;;;;2.80;2.00;;;15.60;52.50;;;;;;4980845;28;20125;-73
2022/04/12 03:59:58;;;;;;;3.83;2.40;;;15.60;52.50;;;;;;4997626;28;20050;-73
2022/04/12 04:02:24;;;;;;;3.60;2.40;;;15.60;52.50;;;;;;4984759;28;20544;-73
2022/04/12 04:04:49;;;;;;;2.85;2.10;;;15.60;52.50;;;;;;4980215;28;20054;-73
2022/04/12 04:07:15;;;;;;;4.40;2.25;;;15.60;52.50;;;;;;4997460;28;20050;-73
2022/04/12 04:09:41;;;;;;;3.00;2.15;;;15.60;52.50;;;;;;4980515;28;20112;-72
2022/04/12 04:12:07;;;;;;;3.85;2.35;;;15.60;52.50;;;;;;4997493;28;20366;-72
2022/04/12 04:14:33;;;;;;;3.63;2.60;;;15.60;52.60;;;;;;4997534;28;20390;-74
2022/04/12 04:17:01;;;;;;;4.38;2.75;;;15.50;52.40;;;;;;4980733;28;20402;-74
2022/04/12 04:19:27;;;;;;;5.20;2.70;;;15.60;52.50;;;;;;4980147;28;20058;-75
2022/04/12 04:21:52;;;;;;;3.17;2.03;;;15.50;52.40;;;;;;4997137;28;20061;-73
2022/04/12 04:24:18;;;;;;;2.80;2.50;;;15.50;52.50;;;;;;4997078;28;20046;-71
2022/04/12 04:26:45;;;;;;;4.40;2.60;;;15.50;52.40;;;;;;4980442;28;20130;-75
2022/04/12 04:29:10;;;;;;;3.28;2.20;;;15.50;52.30;;;;;;4997076;28;20049;-72
2022/04/12 04:31:36;;;;;;;3.63;2.35;;;15.50;52.40;;;;;;4981054;28;20050;-73
2022/04/12 04:34:02;;;;;;;3.60;2.63;;;15.50;52.30;;;;;;4997099;28;20086;-73
2022/04/12 04:36:27;;;;;;;3.15;2.20;;;15.50;52.30;;;;;;4997123;28;20043;-74
2022/04/12 04:38:53;;;;;;;3.55;2.35;;;15.50;52.40;;;;;;4997112;28;20432;-73
2022/04/12 04:41:19;;;;;;;3.55;2.28;;;15.50;52.40;;;;;;4997173;28;20048;-73
2022/04/12 04:43:46;;;;;;;4.18;2.67;;;15.50;52.40;;;;;;4993429;28;20470;-74
2022/04/12 04:46:13;;;;;;;5.70;2.78;;;15.50;52.40;;;;;;4980064;28;20068;-73
2022/04/12 04:48:39;;;;;;;3.92;2.83;;;15.50;52.40;;;;;;4979415;28;20042;-74
2022/04/12 04:51:05;;;;;;;3.70;2.72;;;15.50;52.40;;;;;;4997401;28;20130;-73
2022/04/12 04:53:30;;;;;;;4.40;2.58;;;15.50;52.40;;;;;;4977211;28;20133;-72
2022/04/12 04:55:56;;;;;;;3.78;2.63;;;15.50;52.30;;;;;;4996546;28;20054;-73
2022/04/12 04:58:22;;;;;;;3.53;2.47;;;15.40;52.20;;;;;;4996990;28;20074;-74
2022/04/12 05:00:48;;;;;;;3.30;2.58;;;15.40;52.20;;;;;;4996471;28;20398;-74
2022/04/12 05:03:13;;;;;;;3.17;2.53;;;15.40;52.20;;;;;;4996566;28;20445;-72
2022/04/12 05:05:39;;;;;;;3.72;2.60;;;15.40;52.20;;;;;;4998234;28;20092;-75
2022/04/12 05:08:05;;;;;;;5.28;3.00;;;15.40;52.20;;;;;;5016572;28;20362;-75
2022/04/12 05:10:32;;;;;;;5.25;4.10;;;15.40;52.10;;;;;;5013236;28;20050;-74
2022/04/12 05:13:00;;;;;;;6.72;4.50;;;15.40;51.80;;;;;;5016032;28;20050;-72
2022/04/12 05:15:27;;;;;;;6.72;4.80;;;15.40;51.20;;;;;;5015274;28;20061;-75
2022/04/12 05:17:54;;;;;;;8.85;5.82;;;15.40;50.60;;;;;;4998575;28;20053;-72
2022/04/12 05:20:21;;;;;;;8.85;5.45;;;15.40;50.10;;;;;;5015462;28;20046;-73
2022/04/12 05:22:48;;;;;;;10.57;4.93;;;15.30;50.00;;;;;;5015745;28;20042;-74
2022/04/12 05:25:14;;;;;;;5.78;4.20;;;15.30;50.50;;;;;;5015608;28;20517;-73
2022/04/12 05:27:40;;;;;;;7.40;4.07;;;15.30;51.20;;;;;;4998443;28;20054;-75
2022/04/12 05:30:08;;;;;;;5.20;3.65;;;15.30;51.00;;;;;;5015497;28;20122;-75
2022/04/12 05:32:35;;;;;;;8.23;3.58;;;15.40;50.80;;;;;;4998312;28;20100;-74
2022/04/12 05:35:00;;;;;;;7.10;3.35;;;15.50;52.30;;;;;;5015473;28;20052;-76
2022/04/12 05:37:28;;;;;;;10.70;3.10;;;15.60;53.80;;;;;;5015715;28;20050;-72
2022/04/12 05:39:55;;;;;;;8.05;2.78;;;15.70;54.40;;;;;;4998743;28;20068;-74
2022/04/12 05:42:21;;;;;;;6.95;3.10;;;15.80;54.20;;;;;;5015351;28;20092;-75
2022/04/12 05:44:47;;;;;;;8.73;3.33;;;15.80;54.40;;;;;;5015703;28;20049;-72
2022/04/12 05:47:13;;;;;;;9.85;3.42;;;15.80;54.40;;;;;;5015586;28;20042;-73
2022/04/12 05:49:39;;;;;;;8.18;2.85;;;15.80;54.40;;;;;;4998543;28;20064;-74
2022/04/12 05:52:06;;;;;;;11.50;2.63;;;15.90;54.60;;;;;;4995870;28;20050;-72
2022/04/12 05:54:31;;;;;;;7.68;2.92;;;15.90;54.80;;;;;;4979242;28;20050;-72
2022/04/12 05:56:57;;;;;;;7.35;2.35;;;15.90;54.80;;;;;;4996019;28;20053;-73
2022/04/12 05:59:23;;;;;;;8.70;2.65;;;15.90;54.90;;;;;;4978874;28;20046;-73
2022/04/12 06:01:49;;;;;;;5.95;2.50;;;15.90;55.10;;;;;;5003148;28;20057;-72
2022/04/12 06:04:16;;;;;;;8.80;2.70;;;15.90;55.40;;;;;;4998287;28;20466;-73
2022/04/12 06:06:42;;;;;;;10.70;3.17;;;15.90;55.40;;;;;;4997917;28;20456;-75
2022/04/12 06:09:08;;;;;;;9.57;2.28;;;15.90;55.50;;;;;;5014854;28;20049;-74
2022/04/12 06:11:34;;;;;;;10.75;2.28;;;15.90;55.70;;;;;;5011631;28;20462;-74
2022/04/12 06:14:02;;;;;;;13.73;2.40;;;16.00;56.00;;;;;;4996890;28;20457;-79
2022/04/12 06:16:35;;;;;;;4.70;2.35;;;16.00;55.90;;;;;;4998497;28;20042;-74
2022/04/12 06:19:01;;;;;;;14.00;2.83;;;16.10;55.50;;;;;;4997369;28;20045;-73
2022/04/12 06:21:26;;;;;;;8.43;2.97;;;16.10;55.20;;;;;;5015066;28;20108;-76
2022/04/12 06:23:52;;;;;;;7.22;2.90;;;16.10;55.00;;;;;;4997692;28;20046;-74
2022/04/12 06:26:18;;;;;;;6.07;2.20;;;16.10;55.00;;;;;;5014285;28;20085;-73
2022/04/12 06:28:43;;;;;;;5.93;2.55;;;16.10;55.10;;;;;;5001896;28;20050;-77
2022/04/12 06:31:09;;;;;;;9.55;2.50;;;16.20;55.10;;;;;;5016532;28;20045;-74
2022/04/12 06:33:35;;;;;;;8.10;2.78;;;16.20;55.20;;;;;;4981787;28;20490;-76
2022/04/12 06:36:01;;;;;;;4.85;1.73;;;16.20;55.20;;;;;;4981532;28;20109;-75
2022/04/12 06:38:26;;;;;;;6.18;2.30;;;16.30;55.00;;;;;;4998329;28;20050;-78
2022/04/12 06:40:52;;;;;;;6.63;2.38;;;16.40;54.60;;;;;;4998342;28;20082;-76
2022/04/12 06:43:18;;;;;;;3.75;2.10;;;16.50;53.90;;;;;;4999126;28;20121;-76
2022/04/12 06:45:44;;;;;;;7.00;2.50;;;16.60;53.30;;;;;;4984920;28;20116;-77
2022/04/12 06:48:11;;;;;;;6.47;2.75;;;16.70;52.70;;;;;;5014756;28;20052;-75
2022/04/12 06:50:36;;;;;;;9.48;3.17;;;16.80;52.90;;;;;;5038655;28;20437;-77
2022/04/12 06:53:05;;;;;;;4.75;2.83;;;16.70;53.20;;;;;;5035661;28;20046;-77
2022/04/12 06:55:32;;;;;;;5.38;2.08;;;16.70;53.10;;;;;;5011359;28;20057;-78
2022/04/12 06:57:57;;;;;;;5.00;1.95;;;16.70;53.40;;;;;;5001156;28;20046;-75
2022/04/12 07:00:23;;;;;;;7.85;2.22;;;16.70;53.50;;;;;;5001311;28;20069;-74
2022/04/12 07:02:49;;;;;;;6.65;2.08;;;16.70;53.70;;;;;;4997111;28;20080;-74
2022/04/12 07:05:16;;;;;;;8.85;2.60;;;16.70;53.90;;;;;;4995942;28;20469;-73
2022/04/12 07:07:43;;;;;;;5.50;2.20;;;16.70;53.80;;;;;;5003532;28;20058;-77
2022/04/12 07:10:12;;;;;;;5.90;2.20;;;16.70;53.90;;;;;;5025357;28;20053;-73
2022/04/12 07:12:39;;;;;;;3.65;1.95;;;16.70;53.80;;;;;;4997343;28;20053;-77
2022/04/12 07:15:06;;;;;;;5.20;1.98;;;16.70;53.80;;;;;;4998612;28;20082;-77
2022/04/12 07:17:33;;;;;;;5.45;2.13;;;16.70;53.90;;;;;;4997897;28;20122;-73
2022/04/12 07:19:59;;;;;;;7.03;2.08;;;16.70;54.00;;;;;;4980635;28;20125;-79
2022/04/12 07:22:24;;;;;;;8.63;2.47;;;16.70;54.20;;;;;;5013663;28;20046;-75
2022/04/12 07:24:50;;;;;;;6.45;2.80;;;16.70;54.40;;;;;;4998145;28;20042;-75
2022/04/12 07:27:16;;;;;;;7.55;2.30;;;16.70;54.50;;;;;;4998326;28;20458;-75
2022/04/12 07:29:42;;;;;;;6.78;3.22;;;16.70;54.60;;;;;;4998077;28;20038;-74
2022/04/12 07:32:08;;;;;;;9.05;2.92;;;16.70;54.80;;;;;;4998192;28;20116;-74
2022/04/12 07:34:33;;;;;;;10.30;2.90;;;16.80;55.30;;;;;;5010751;28;20052;-73
2022/04/12 07:36:59;;;;;;;12.00;2.67;;;16.80;56.40;;;;;;5036631;28;20080;-75
2022/04/12 07:39:27;;;;;;;6.32;2.63;;;17.10;56.40;;;;;;5019498;28;20118;-78
2022/04/12 07:41:53;;;;;;;15.00;4.78;;;17.20;56.30;;;;;;5012433;28;20061;-75
2022/04/12 07:44:20;;;;;;;11.93;4.43;;;17.20;55.10;;;;;;5017233;28;20461;-75
2022/04/12 07:46:47;;;;;;;9.50;4.32;;;17.30;54.40;;;;;;5017598;28;20354;-75
2022/04/12 07:49:13;;;;;;;11.52;5.60;;;17.30;53.00;;;;;;5017721;28;20042;-76
2022/04/12 07:51:39;;;;;;;11.40;5.50;;;17.40;52.30;;;;;;5001137;28;20196;-76
2022/04/12 07:54:06;;;;;;;11.38;5.82;;;17.40;51.50;;;;;;5017515;28;20045;-76
2022/04/12 07:56:33;;;;;;;9.65;5.38;;;17.30;51.00;;;;;;4992396;28;20085;-74
2022/04/12 07:58:59;;;;;;;16.65;6.22;;;17.30;50.50;;;;;;5000935;28;20050;-76
2022/04/12 08:01:25;;;;;;;14.13;5.72;;;17.30;50.30;;;;;;4980515;28;20541;-74
2022/04/12 08:03:51;;;;;;;23.20;6.80;;;17.30;50.30;;;;;;4997658;28;20180;-75
2022/04/12 08:06:16;;;;;;;7.70;5.45;;;17.20;50.00;;;;;;4980650;28;20366;-75
2022/04/12 08:08:43;;;;;;;9.52;5.88;;;17.30;50.00;;;;;;4998296;28;20069;-79
2022/04/12 08:11:09;;;;;;;15.23;5.63;;;17.30;49.60;;;;;;4997649;28;20454;-76
2022/04/12 08:13:35;;;;;;;13.43;6.00;;;17.20;49.10;;;;;;4997363;28;20116;-76
2022/04/12 08:16:01;;;;;;;11.10;6.28;;;17.20;48.90;;;;;;4980492;28;20518;-76
2022/04/12 08:18:26;;;;;;;10.65;5.65;;;17.30;48.40;;;;;;4997836;28;20061;-77
2022/04/12 08:20:54;;;;;;;9.43;5.75;;;17.30;47.70;;;;;;4997342;28;20442;-75
2022/04/12 08:23:24;;;;;;;9.02;4.97;;;17.30;47.70;;;;;;4997131;28;20058;-76
2022/04/12 08:25:53;;;;;;;10.27;5.20;;;17.20;47.60;;;;;;4980274;28;20054;-76
2022/04/12 08:28:19;;;;;;;7.20;5.55;;;17.20;47.20;;;;;;4980978;28;20362;-74
2022/04/12 08:30:45;;;;;;;7.03;5.50;;;17.30;47.20;;;;;;4996934;28;20047;-76
2022/04/12 08:33:11;;;;;;;8.65;5.57;;;17.20;46.80;;;;;;4996734;28;20046;-76
2022/04/12 08:35:37;;;;;;;8.90;4.70;;;17.30;46.70;;;;;;4997035;28;20058;-75
2022/04/12 08:38:03;;;;;;;8.93;5.57;;;17.30;46.80;;;;;;4999801;28;20590;-77
2022/04/12 08:40:30;;;;;;;7.97;5.07;;;17.30;46.80;;;;;;5002146;28;20042;-73
2022/04/12 08:42:58;;;;;;;9.23;4.15;;;17.30;46.80;;;;;;4995491;28;20056;-75
2022/04/12 08:45:25;;;;;;;7.38;4.20;;;17.40;46.80;;;;;;4998897;28;20103;-75
2022/04/12 08:47:51;;;;;;;19.45;4.70;;;17.50;46.80;;;;;;5016171;28;20385;-76
2022/04/12 08:50:19;;;;;;;7.47;4.03;;;17.60;46.80;;;;;;4998573;28;20055;-76
2022/04/12 08:52:46;;;;;;;8.05;3.80;;;17.60;47.00;;;;;;5012272;28;20046;-74
2022/04/12 08:55:12;;;;;;;11.25;3.97;;;17.70;47.20;;;;;;4987773;28;20042;-76
2022/04/12 08:57:38;;;;;;;7.70;3.85;;;17.70;47.10;;;;;;4989136;28;20511;-75
2022/04/12 09:00:07;;;;;;;10.10;3.80;;;17.70;47.50;;;;;;5008149;28;20046;-75
2022/04/12 09:02:33;;;;;;;10.15;3.70;;;17.80;49.10;;;;;;5015886;28;20046;-77
2022/04/12 09:04:59;;;;;;;13.73;3.80;;;17.80;49.50;;;;;;4998901;28;20037;-73
2022/04/12 09:07:27;;;;;;;9.40;3.20;;;17.80;49.70;;;;;;5006471;28;20042;-74
2022/04/12 09:10:08;;;;;;;8.95;3.67;;;17.80;50.40;;;;;;5012948;28;20053;-74
2022/04/12 09:12:34;;;;;;;12.60;3.63;;;17.80;53.00;;;;;;5015670;28;20050;-77
2022/04/12 09:15:01;;;;;;;12.68;4.00;;;17.80;55.30;;;;;;5015317;28;20056;-78
2022/04/12 09:17:35;;;;;;;9.70;4.47;;;17.90;55.10;;;;;;4998457;28;20139;-77
2022/04/12 09:20:23;;;;;;;7.88;4.47;;;17.80;55.80;;;;;;5015762;28;20041;-76
2022/04/12 09:22:50;;;;;;;12.45;5.00;;;17.80;55.50;;;;;;5014496;28;20057;-76
2022/04/12 09:25:17;;;;;;;9.52;4.70;;;17.90;55.70;;;;;;5015611;28;20377;-77
2022/04/12 09:27:48;;;;;;;13.35;4.30;;;17.90;56.00;;;;;;5014598;28;20045;-75
2022/04/12 09:30:14;;;;;;;11.15;4.45;;;17.90;56.50;;;;;;5015543;28;20054;-75
2022/04/12 09:32:48;;;;;;;8.63;4.78;;;17.80;56.30;;;;;;5015176;28;20505;-78
2022/04/12 09:35:14;;;;;;;;;;;17.90;55.60;;;;;;4998015;28;20108;-76
2022/04/12 09:37:42;;;;;;;9.20;4.63;;;17.80;55.10;;;;;;4997484;28;19954;-75
2022/04/12 09:40:11;;;;;;;9.98;4.95;;;17.80;54.90;;;;;;4996009;28;20108;-77
2022/04/12 09:42:52;;;;;;;6.13;4.15;;;17.80;54.10;;;;;;5014668;28;20468;-76
2022/04/12 09:45:28;;;;;;;6.65;4.38;;;17.80;53.80;;;;;;5014652;28;20092;-76
2022/04/12 09:47:58;;;;;;;7.07;4.32;;;17.80;53.80;;;;;;4997696;28;20084;-76
2022/04/12 09:50:26;;;;;;;7.80;4.38;;;17.80;53.50;;;;;;5012273;28;20050;-76
2022/04/12 09:52:57;;;;;;;9.63;4.63;;;17.80;53.20;;;;;;4997527;28;20056;-79
2022/04/12 09:55:39;;;;;;;6.72;4.53;;;17.80;53.00;;;;;;4995054;28;20038;-76
2022/04/12 09:58:10;;;;;;;4.57;3.92;;;17.80;52.80;;;;;;5014440;28;20124;-77
2022/04/12 10:00:39;;;;;;;6.22;3.85;;;17.70;53.00;;;;;;5014647;28;20107;-76
2022/04/12 10:03:06;;;;;;;6.85;4.55;;;17.70;53.00;;;;;;5013687;28;20049;-74
2022/04/12 10:05:32;;;;;;;5.95;4.35;;;17.70;52.90;;;;;;4994450;28;20116;-76
2022/04/12 10:08:00;;;;;;;6.05;4.30;;;17.70;52.80;;;;;;4987990;28;20046;-77
2022/04/12 10:10:26;;;;;;;6.65;3.88;;;17.70;52.70;;;;;;4997245;28;20102;-76
2022/04/12 10:12:56;;;;;;;6.18;3.80;;;17.80;52.90;;;;;;5013021;28;21058;-75
2022/04/12 10:15:23;;;;;;;5.50;4.07;;;17.80;53.00;;;;;;4995487;28;20070;-79
2022/04/12 10:17:50;;;;;;;4.90;3.75;;;17.80;53.10;;;;;;4978609;28;20327;-75
2022/04/12 10:20:18;;;;;;;6.82;4.07;;;17.70;53.00;;;;;;4995409;28;20129;-78
2022/04/12 10:22:45;;;;;;;6.30;3.85;;;17.80;53.30;;;;;;4997502;28;20436;-76
2022/04/12 10:25:20;;;;;;;4.75;3.97;;;17.70;54.00;;;;;;5012505;28;20077;-75
2022/04/12 10:27:48;;;;;;;4.30;3.90;;;17.70;53.50;;;;;;4976470;28;20041;-75
2022/04/12 10:30:17;;;;;;;5.05;4.13;;;17.70;53.70;;;;;;5014373;28;20068;-77
2022/04/12 10:33:16;;;;;;;5.40;4.13;;;17.70;53.80;;;;;;4993878;28;20062;-76
2022/04/12 10:35:44;;;;;;;5.68;3.97;;;17.70;53.90;;;;;;5014563;28;20070;-74
2022/04/12 10:38:18;;;;;;;5.70;3.97;;;17.70;54.10;;;;;;5014578;28;20049;-77
2022/04/12 10:40:51;;;;;;;7.50;4.18;;;17.70;54.10;;;;;;4994366;28;20050;-75
2022/04/12 10:43:36;;;;;;;6.90;4.90;;;17.70;54.10;;;;;;5010345;28;20354;-76
2022/04/12 10:46:04;;;;;;;8.90;6.13;;;17.80;53.40;;;;;;5005722;28;20117;-73
2022/04/12 10:48:30;;;;;;;9.07;6.40;;;17.80;52.90;;;;;;5005510;28;20140;-76
2022/04/12 10:50:59;;;;;;;8.73;6.20;;;17.80;52.90;;;;;;5014292;28;20096;-77
2022/04/12 10:53:40;;;;;;;7.25;5.97;;;17.80;53.50;;;;;;4997347;28;20056;-77
2022/04/12 10:56:16;;;;;;;10.73;6.63;;;17.80;55.00;;;;;;4993877;28;20077;-77
2022/04/12 10:58:43;;;;;;;8.80;5.70;;;17.80;55.00;;;;;;5013425;28;20125;-73
2022/04/12 11:01:12;;;;;;;10.90;6.20;;;17.70;54.90;;;;;;5014388;28;20058;-78
2022/04/12 11:03:41;;;;;;;9.50;5.70;;;17.70;55.20;;;;;;5014661;28;20508;-78
2022/04/12 11:06:11;;;;;;;8.50;5.78;;;17.70;55.30;;;;;;4997534;28;20077;-78
2022/04/12 11:08:41;;;;;;;11.73;5.28;;;17.70;55.40;;;;;;5014795;28;20577;-76
2022/04/12 11:11:09;;;;;;;12.57;5.95;;;17.70;55.40;;;;;;5014486;28;20103;-76
2022/04/12 11:13:35;;;;;;;12.50;5.68;;;17.70;55.80;;;;;;4997996;28;20423;-75
2022/04/12 11:16:08;;;;;;;9.23;5.53;;;17.70;55.40;;;;;;5000689;28;20049;-77
2022/04/12 11:18:51;;;;;;;7.40;5.25;;;17.70;55.40;;;;;;4993603;28;20065;-77
2022/04/12 11:21:20;;;;;;;7.15;5.20;;;17.70;55.00;;;;;;5000706;28;20050;-75
2022/04/12 11:23:48;;;;;;;7.00;4.95;;;17.70;55.10;;;;;;5000700;28;20048;-73
2022/04/12 11:26:40;;;;;;;8.35;5.40;;;17.70;55.30;;;;;;5017054;28;20382;-78
2022/04/12 11:29:10;;;;;;;7.65;5.15;;;17.70;55.80;;;;;;4998424;28;20046;-71
2022/04/12 11:31:47;;;;;;;41.75;21.55;;;17.70;56.00;;;;;;4981101;28;20440;-73
2022/04/12 11:34:14;;;;;;;13.38;8.43;;;17.70;57.10;;;;;;4998198;28;20354;-74
2022/04/12 11:36:46;;;;;;;14.98;7.72;;;17.70;56.00;;;;;;4998029;28;20056;-72
2022/04/12 11:39:25;;;;;;;14.63;7.63;;;17.70;55.60;;;;;;5010960;28;20057;-69
2022/04/12 11:42:06;;;;;;;16.95;8.00;;;17.70;55.50;;;;;;5001053;28;20108;-80
2022/04/12 11:44:33;;;;;;;22.52;8.10;;;17.70;55.40;;;;;;4972176;28;20145;-75
2022/04/12 11:47:05;;;;;;;18.67;7.68;;;17.70;55.70;;;;;;4981514;28;20058;-75
2022/04/12 11:49:39;;;;;;;15.32;7.18;;;17.70;54.60;;;;;;4999075;28;20078;-75
2022/04/12 11:52:13;;;;;;;11.25;7.13;;;17.70;53.50;;;;;;4992316;28;20050;-73
2022/04/12 11:54:46;;;;;;;14.80;7.30;;;17.70;54.40;;;;;;4989302;28;20082;-72
2022/04/12 11:57:22;;;;;;;13.57;7.93;;;17.70;56.00;;;;;;4996017;28;20101;-75
2022/04/12 11:59:55;;;;;;;16.15;7.70;;;17.80;57.30;;;;;;4997011;28;20073;-74
2022/04/12 12:02:26;;;;;;;16.48;6.95;;;17.80;56.80;;;;;;4980591;28;20093;-73
2022/04/12 12:05:10;;;;;;;15.38;7.72;;;17.80;55.10;;;;;;4984836;28;20554;-75
2022/04/12 12:07:37;;;;;;;10.67;6.93;;;17.80;54.70;;;;;;4978227;28;20374;-74
2022/04/12 12:10:14;;;;;;;12.07;6.68;;;17.80;54.30;;;;;;4983336;28;20306;-73
2022/04/12 12:12:46;;;;;;;9.30;6.85;;;17.80;53.00;;;;;;4990260;28;20054;-74
2022/04/12 12:15:28;;;;;;;9.95;6.57;;;17.80;52.70;;;;;;4997300;28;20116;-73
2022/04/12 12:18:05;;;;;;;10.43;6.53;;;17.80;53.20;;;;;;4997314;28;20057;-73
2022/04/12 12:20:32;;;;;;;9.45;6.50;;;17.70;53.20;;;;;;4997466;28;20046;-73
2022/04/12 12:23:00;;;;;;;8.75;6.50;;;17.70;53.20;;;;;;4997640;28;20060;-73
2022/04/12 12:25:55;;;;;;;9.98;7.00;;;17.70;53.20;;;;;;4979986;28;20116;-73
2022/04/12 12:28:26;;;;;;;7.88;5.93;;;17.70;53.10;;;;;;4997331;28;20058;-74
2022/04/12 12:31:00;;;;;;;9.15;5.65;;;17.70;52.70;;;;;;4997033;28;20162;-73
2022/04/12 12:33:41;;;;;;;11.05;6.35;;;17.70;52.80;;;;;;4989076;28;20050;-72
2022/04/12 12:36:24;;;;;;;13.90;5.85;;;17.70;52.90;;;;;;4977573;28;20387;-73
2022/04/12 12:38:51;;;;;;;11.35;6.13;;;17.70;53.50;;;;;;4993443;28;20078;-73
2022/04/12 12:41:43;;;;;;;10.93;5.90;;;17.70;54.10;;;;;;4962852;28;20153;-70
2022/04/12 12:44:09;;;;;;;8.38;4.78;;;17.70;55.80;;;;;;4976401;28;20084;-74
2022/04/12 12:46:35;;;;;;;12.38;5.13;;;17.70;55.70;;;;;;4980156;28;20054;-73
2022/04/12 12:49:15;;;;;;;9.52;5.28;;;17.70;56.00;;;;;;4983518;28;20459;-73
2022/04/12 12:51:41;;;;;;;12.77;4.32;;;17.70;55.90;;;;;;4987855;28;20078;-72